sensor_id;sensor_type;location;lat;lon;timestamp;P1;durP1;ratioP1;P2;durP2;ratioP2
30515;SDS011;17297;54.022;10.760;2023-02-01T00:01:42;6.93;;;2.28;;
30515;SDS011;17297;54.022;10.760;2023-02-01T00:04:07;9.02;;;2.65;;
30515;SDS011;17297;54.022;10.760;2023-02-01T00:06:33;10.27;;;2.45;;
30515;SDS011;17297;54.022;10.760;2023-02-01T00:08:58;9.23;;;2.65;;
30515;SDS011;17297;54.022;10.760;2023-02-01T00:11:23;12.38;;;2.70;;
30515;SDS011;17297;54.022;10.760;2023-02-01T00:13:49;7.10;;;2.38;;
30515;SDS011;17297;54.022;10.760;2023-02-01T00:16:22;8.55;;;2.85;;
30515;SDS011;17297;54.022;10.760;2023-02-01T00:18:57;9.57;;;3.58;;
30515;SDS011;17297;54.022;10.760;2023-02-01T00:21:24;8.48;;;2.55;;
30515;SDS011;17297;54.022;10.760;2023-02-01T00:23:49;10.85;;;2.90;;
30515;SDS011;17297;54.022;10.760;2023-02-01T00:26:16;8.82;;;2.58;;
30515;SDS011;17297;54.022;10.760;2023-02-01T00:28:43;8.88;;;2.00;;
30515;SDS011;17297;54.022;10.760;2023-02-01T00:31:09;7.03;;;2.30;;
30515;SDS011;17297;54.022;10.760;2023-02-01T00:33:34;8.60;;;2.08;;
30515;SDS011;17297;54.022;10.760;2023-02-01T00:36:00;8.25;;;2.10;;
30515;SDS011;17297;54.022;10.760;2023-02-01T00:38:30;6.13;;;1.88;;
30515;SDS011;17297;54.022;10.760;2023-02-01T00:41:03;7.47;;;1.88;;
30515;SDS011;17297;54.022;10.760;2023-02-01T00:43:30;5.53;;;1.50;;
30515;SDS011;17297;54.022;10.760;2023-02-01T00:45:56;6.03;;;1.50;;
30515;SDS011;17297;54.022;10.760;2023-02-01T00:48:22;6.95;;;1.80;;
30515;SDS011;17297;54.022;10.760;2023-02-01T00:50:47;9.23;;;2.15;;
30515;SDS011;17297;54.022;10.760;2023-02-01T00:53:12;6.53;;;2.22;;
30515;SDS011;17297;54.022;10.760;2023-02-01T00:55:38;6.70;;;2.33;;
30515;SDS011;17297;54.022;10.760;2023-02-01T00:58:04;7.03;;;2.13;;
30515;SDS011;17297;54.022;10.760;2023-02-01T01:00:31;7.43;;;2.55;;
30515;SDS011;17297;54.022;10.760;2023-02-01T01:02:57;8.43;;;2.25;;
30515;SDS011;17297;54.022;10.760;2023-02-01T01:05:23;7.47;;;2.30;;
30515;SDS011;17297;54.022;10.760;2023-02-01T01:07:49;10.50;;;2.95;;
30515;SDS011;17297;54.022;10.760;2023-02-01T01:10:14;10.75;;;2.78;;
30515;SDS011;17297;54.022;10.760;2023-02-01T01:12:40;10.18;;;2.80;;
30515;SDS011;17297;54.022;10.760;2023-02-01T01:15:06;16.85;;;3.28;;
30515;SDS011;17297;54.022;10.760;2023-02-01T01:17:32;11.82;;;3.17;;
30515;SDS011;17297;54.022;10.760;2023-02-01T01:19:57;8.63;;;2.45;;
30515;SDS011;17297;54.022;10.760;2023-02-01T01:22:22;7.78;;;2.20;;
30515;SDS011;17297;54.022;10.760;2023-02-01T01:24:47;12.10;;;3.17;;
30515;SDS011;17297;54.022;10.760;2023-02-01T01:27:13;11.13;;;2.80;;
30515;SDS011;17297;54.022;10.760;2023-02-01T01:29:39;8.63;;;3.53;;
30515;SDS011;17297;54.022;10.760;2023-02-01T01:32:04;10.40;;;2.95;;
30515;SDS011;17297;54.022;10.760;2023-02-01T01:34:29;16.23;;;3.85;;
30515;SDS011;17297;54.022;10.760;2023-02-01T01:36:55;7.65;;;2.53;;
30515;SDS011;17297;54.022;10.760;2023-02-01T01:39:20;8.27;;;3.20;;
30515;SDS011;17297;54.022;10.760;2023-02-01T01:41:45;9.95;;;2.75;;
30515;SDS011;17297;54.022;10.760;2023-02-01T01:47:43;10.35;;;2.30;;
30515;SDS011;17297;54.022;10.760;2023-02-01T01:50:14;11.88;;;3.65;;
30515;SDS011;17297;54.022;10.760;2023-02-01T01:52:43;10.00;;;2.50;;
30515;SDS011;17297;54.022;10.760;2023-02-01T01:55:14;9.13;;;2.35;;
30515;SDS011;17297;54.022;10.760;2023-02-01T01:57:44;10.10;;;2.97;;
30515;SDS011;17297;54.022;10.760;2023-02-01T02:00:16;11.95;;;2.70;;
30515;SDS011;17297;54.022;10.760;2023-02-01T02:02:46;11.07;;;2.67;;
30515;SDS011;17297;54.022;10.760;2023-02-01T02:05:15;9.05;;;2.90;;
30515;SDS011;17297;54.022;10.760;2023-02-01T02:07:43;12.00;;;3.55;;
30515;SDS011;17297;54.022;10.760;2023-02-01T02:10:12;12.95;;;2.70;;
30515;SDS011;17297;54.022;10.760;2023-02-01T02:12:40;12.00;;;2.88;;
30515;SDS011;17297;54.022;10.760;2023-02-01T02:15:08;7.40;;;3.25;;
30515;SDS011;17297;54.022;10.760;2023-02-01T02:31:40;5.38;;;2.20;;
30515;SDS011;17297;54.022;10.760;2023-02-01T02:45:52;9.32;;;2.58;;
30515;SDS011;17297;54.022;10.760;2023-02-01T02:48:51;9.70;;;2.63;;
30515;SDS011;17297;54.022;10.760;2023-02-01T02:51:21;9.93;;;2.80;;
30515;SDS011;17297;54.022;10.760;2023-02-01T02:54:13;5.47;;;2.35;;
30515;SDS011;17297;54.022;10.760;2023-02-01T02:57:02;10.63;;;3.38;;
30515;SDS011;17297;54.022;10.760;2023-02-01T02:59:50;8.35;;;2.60;;
30515;SDS011;17297;54.022;10.760;2023-02-01T03:05:21;10.48;;;2.40;;
30515;SDS011;17297;54.022;10.760;2023-02-01T03:13:26;7.72;;;2.72;;
30515;SDS011;17297;54.022;10.760;2023-02-01T03:21:13;13.98;;;4.60;;
30515;SDS011;17297;54.022;10.760;2023-02-01T03:23:44;9.38;;;2.72;;
30515;SDS011;17297;54.022;10.760;2023-02-01T03:26:13;15.90;;;4.68;;
30515;SDS011;17297;54.022;10.760;2023-02-01T03:28:47;11.45;;;2.50;;
30515;SDS011;17297;54.022;10.760;2023-02-01T03:31:17;12.52;;;3.47;;
30515;SDS011;17297;54.022;10.760;2023-02-01T03:33:44;11.93;;;2.30;;
30515;SDS011;17297;54.022;10.760;2023-02-01T03:41:37;7.38;;;3.35;;
30515;SDS011;17297;54.022;10.760;2023-02-01T03:44:15;12.02;;;3.55;;
30515;SDS011;17297;54.022;10.760;2023-02-01T03:46:55;11.43;;;2.78;;
30515;SDS011;17297;54.022;10.760;2023-02-01T03:49:32;15.38;;;4.00;;
30515;SDS011;17297;54.022;10.760;2023-02-01T03:52:09;13.50;;;3.85;;
30515;SDS011;17297;54.022;10.760;2023-02-01T03:54:38;15.40;;;3.03;;
30515;SDS011;17297;54.022;10.760;2023-02-01T03:57:06;9.38;;;3.08;;
30515;SDS011;17297;54.022;10.760;2023-02-01T03:59:39;11.00;;;2.85;;
30515;SDS011;17297;54.022;10.760;2023-02-01T04:02:06;12.13;;;3.75;;
30515;SDS011;17297;54.022;10.760;2023-02-01T04:04:31;11.85;;;3.92;;
30515;SDS011;17297;54.022;10.760;2023-02-01T04:06:58;11.55;;;2.90;;
30515;SDS011;17297;54.022;10.760;2023-02-01T04:09:24;9.05;;;2.65;;
30515;SDS011;17297;54.022;10.760;2023-02-01T04:11:49;14.75;;;3.25;;
30515;SDS011;17297;54.022;10.760;2023-02-01T04:14:14;12.70;;;2.97;;
30515;SDS011;17297;54.022;10.760;2023-02-01T04:16:40;11.40;;;3.80;;
30515;SDS011;17297;54.022;10.760;2023-02-01T04:19:05;10.70;;;2.55;;
30515;SDS011;17297;54.022;10.760;2023-02-01T04:21:30;12.55;;;2.67;;
30515;SDS011;17297;54.022;10.760;2023-02-01T04:23:56;9.38;;;3.17;;
30515;SDS011;17297;54.022;10.760;2023-02-01T04:26:21;8.00;;;3.10;;
30515;SDS011;17297;54.022;10.760;2023-02-01T04:28:46;9.90;;;2.33;;
30515;SDS011;17297;54.022;10.760;2023-02-01T04:31:16;9.45;;;2.60;;
30515;SDS011;17297;54.022;10.760;2023-02-01T04:33:43;9.27;;;2.53;;
30515;SDS011;17297;54.022;10.760;2023-02-01T04:36:08;9.43;;;1.92;;
30515;SDS011;17297;54.022;10.760;2023-02-01T04:38:34;5.63;;;1.80;;
30515;SDS011;17297;54.022;10.760;2023-02-01T04:41:00;7.13;;;1.75;;
30515;SDS011;17297;54.022;10.760;2023-02-01T04:43:25;9.57;;;2.33;;
30515;SDS011;17297;54.022;10.760;2023-02-01T04:45:51;6.90;;;2.00;;
30515;SDS011;17297;54.022;10.760;2023-02-01T04:48:18;6.93;;;1.90;;
30515;SDS011;17297;54.022;10.760;2023-02-01T04:50:44;5.40;;;2.08;;
30515;SDS011;17297;54.022;10.760;2023-02-01T04:53:13;7.72;;;1.95;;
30515;SDS011;17297;54.022;10.760;2023-02-01T04:55:40;6.18;;;1.60;;
30515;SDS011;17297;54.022;10.760;2023-02-01T04:58:05;4.32;;;1.33;;
30515;SDS011;17297;54.022;10.760;2023-02-01T05:00:31;1.63;;;1.15;;
30515;SDS011;17297;54.022;10.760;2023-02-01T05:02:56;2.70;;;1.27;;
30515;SDS011;17297;54.022;10.760;2023-02-01T05:05:21;2.25;;;0.70;;
30515;SDS011;17297;54.022;10.760;2023-02-01T05:07:47;3.33;;;1.00;;
30515;SDS011;17297;54.022;10.760;2023-02-01T05:10:12;0.98;;;0.75;;
30515;SDS011;17297;54.022;10.760;2023-02-01T05:12:37;1.20;;;0.73;;
30515;SDS011;17297;54.022;10.760;2023-02-01T05:15:21;1.15;;;0.75;;
30515;SDS011;17297;54.022;10.760;2023-02-01T05:17:47;2.13;;;0.73;;
30515;SDS011;17297;54.022;10.760;2023-02-01T05:20:12;2.58;;;0.63;;
30515;SDS011;17297;54.022;10.760;2023-02-01T05:22:37;0.98;;;0.50;;
30515;SDS011;17297;54.022;10.760;2023-02-01T05:25:03;1.05;;;0.70;;
30515;SDS011;17297;54.022;10.760;2023-02-01T05:27:29;0.70;;;0.70;;
30515;SDS011;17297;54.022;10.760;2023-02-01T05:29:55;1.15;;;0.80;;
30515;SDS011;17297;54.022;10.760;2023-02-01T05:32:21;1.90;;;1.25;;
30515;SDS011;17297;54.022;10.760;2023-02-01T05:34:46;3.33;;;0.93;;
30515;SDS011;17297;54.022;10.760;2023-02-01T05:37:11;0.98;;;0.63;;
30515;SDS011;17297;54.022;10.760;2023-02-01T05:39:37;1.77;;;0.77;;
30515;SDS011;17297;54.022;10.760;2023-02-01T05:42:02;1.00;;;0.50;;
30515;SDS011;17297;54.022;10.760;2023-02-01T05:44:27;2.30;;;0.73;;
30515;SDS011;17297;54.022;10.760;2023-02-01T05:46:53;0.73;;;0.63;;
30515;SDS011;17297;54.022;10.760;2023-02-01T05:49:18;0.50;;;0.50;;
30515;SDS011;17297;54.022;10.760;2023-02-01T05:51:43;3.45;;;0.63;;
30515;SDS011;17297;54.022;10.760;2023-02-01T05:54:09;1.10;;;0.60;;
30515;SDS011;17297;54.022;10.760;2023-02-01T05:56:35;1.02;;;0.40;;
30515;SDS011;17297;54.022;10.760;2023-02-01T05:59:00;1.65;;;1.10;;
30515;SDS011;17297;54.022;10.760;2023-02-01T06:01:25;2.60;;;0.73;;
30515;SDS011;17297;54.022;10.760;2023-02-01T06:03:51;1.42;;;0.70;;
30515;SDS011;17297;54.022;10.760;2023-02-01T06:06:16;4.43;;;1.33;;
30515;SDS011;17297;54.022;10.760;2023-02-01T06:08:41;2.10;;;0.95;;
30515;SDS011;17297;54.022;10.760;2023-02-01T06:11:07;2.25;;;0.80;;
30515;SDS011;17297;54.022;10.760;2023-02-01T06:13:32;5.68;;;1.90;;
30515;SDS011;17297;54.022;10.760;2023-02-01T06:15:58;3.22;;;0.90;;
30515;SDS011;17297;54.022;10.760;2023-02-01T06:18:24;2.15;;;0.90;;
30515;SDS011;17297;54.022;10.760;2023-02-01T06:20:56;2.30;;;0.95;;
30515;SDS011;17297;54.022;10.760;2023-02-01T06:23:24;2.58;;;0.70;;
30515;SDS011;17297;54.022;10.760;2023-02-01T06:25:50;3.90;;;0.93;;
30515;SDS011;17297;54.022;10.760;2023-02-01T06:28:17;1.40;;;0.85;;
30515;SDS011;17297;54.022;10.760;2023-02-01T06:30:42;1.10;;;0.82;;
30515;SDS011;17297;54.022;10.760;2023-02-01T06:33:14;3.63;;;1.20;;
30515;SDS011;17297;54.022;10.760;2023-02-01T06:35:42;1.25;;;0.90;;
30515;SDS011;17297;54.022;10.760;2023-02-01T06:38:09;2.10;;;0.80;;
30515;SDS011;17297;54.022;10.760;2023-02-01T06:40:37;2.17;;;0.85;;
30515;SDS011;17297;54.022;10.760;2023-02-01T06:43:03;1.98;;;0.90;;
30515;SDS011;17297;54.022;10.760;2023-02-01T06:45:29;2.53;;;0.90;;
30515;SDS011;17297;54.022;10.760;2023-02-01T06:47:54;3.25;;;1.00;;
30515;SDS011;17297;54.022;10.760;2023-02-01T06:50:20;1.98;;;1.02;;
30515;SDS011;17297;54.022;10.760;2023-02-01T06:52:45;4.05;;;1.00;;
30515;SDS011;17297;54.022;10.760;2023-02-01T06:55:11;2.30;;;2.15;;
30515;SDS011;17297;54.022;10.760;2023-02-01T06:57:37;3.42;;;1.15;;
30515;SDS011;17297;54.022;10.760;2023-02-01T07:00:03;1.63;;;0.93;;
30515;SDS011;17297;54.022;10.760;2023-02-01T07:02:29;2.78;;;0.90;;
30515;SDS011;17297;54.022;10.760;2023-02-01T07:04:54;3.85;;;1.23;;
30515;SDS011;17297;54.022;10.760;2023-02-01T07:07:20;2.85;;;1.05;;
30515;SDS011;17297;54.022;10.760;2023-02-01T07:09:47;3.50;;;1.08;;
30515;SDS011;17297;54.022;10.760;2023-02-01T07:12:15;2.50;;;1.45;;
30515;SDS011;17297;54.022;10.760;2023-02-01T07:14:40;3.80;;;1.20;;
30515;SDS011;17297;54.022;10.760;2023-02-01T07:17:06;5.95;;;2.65;;
30515;SDS011;17297;54.022;10.760;2023-02-01T07:19:31;2.35;;;1.80;;
30515;SDS011;17297;54.022;10.760;2023-02-01T07:21:56;2.45;;;0.90;;
30515;SDS011;17297;54.022;10.760;2023-02-01T07:24:22;2.97;;;1.20;;
30515;SDS011;17297;54.022;10.760;2023-02-01T07:26:47;1.83;;;1.10;;
30515;SDS011;17297;54.022;10.760;2023-02-01T07:29:13;2.75;;;1.05;;
30515;SDS011;17297;54.022;10.760;2023-02-01T07:31:39;3.28;;;2.03;;
30515;SDS011;17297;54.022;10.760;2023-02-01T07:34:04;6.93;;;1.40;;
30515;SDS011;17297;54.022;10.760;2023-02-01T07:36:29;2.60;;;1.30;;
30515;SDS011;17297;54.022;10.760;2023-02-01T07:38:55;3.47;;;1.45;;
30515;SDS011;17297;54.022;10.760;2023-02-01T07:41:20;3.38;;;1.58;;
30515;SDS011;17297;54.022;10.760;2023-02-01T07:43:45;4.57;;;1.75;;
30515;SDS011;17297;54.022;10.760;2023-02-01T07:46:11;3.38;;;1.42;;
30515;SDS011;17297;54.022;10.760;2023-02-01T07:48:37;4.25;;;2.40;;
30515;SDS011;17297;54.022;10.760;2023-02-01T07:51:08;8.13;;;1.80;;
30515;SDS011;17297;54.022;10.760;2023-02-01T07:53:35;3.13;;;1.10;;
30515;SDS011;17297;54.022;10.760;2023-02-01T07:56:01;6.95;;;1.65;;
30515;SDS011;17297;54.022;10.760;2023-02-01T07:58:27;5.00;;;1.77;;
30515;SDS011;17297;54.022;10.760;2023-02-01T08:00:53;7.05;;;2.55;;
30515;SDS011;17297;54.022;10.760;2023-02-01T08:03:38;7.50;;;1.90;;
30515;SDS011;17297;54.022;10.760;2023-02-01T08:06:04;6.25;;;1.65;;
30515;SDS011;17297;54.022;10.760;2023-02-01T08:08:30;7.43;;;2.15;;
30515;SDS011;17297;54.022;10.760;2023-02-01T08:11:02;4.80;;;1.63;;
30515;SDS011;17297;54.022;10.760;2023-02-01T08:13:29;4.95;;;1.88;;
30515;SDS011;17297;54.022;10.760;2023-02-01T08:15:59;4.80;;;1.88;;
30515;SDS011;17297;54.022;10.760;2023-02-01T08:18:25;5.72;;;2.20;;
30515;SDS011;17297;54.022;10.760;2023-02-01T08:20:51;6.70;;;1.63;;
30515;SDS011;17297;54.022;10.760;2023-02-01T08:23:16;10.73;;;2.17;;
30515;SDS011;17297;54.022;10.760;2023-02-01T08:25:42;8.60;;;2.10;;
30515;SDS011;17297;54.022;10.760;2023-02-01T08:28:08;7.07;;;2.10;;
30515;SDS011;17297;54.022;10.760;2023-02-01T08:30:35;7.43;;;1.95;;
30515;SDS011;17297;54.022;10.760;2023-02-01T08:33:02;10.73;;;2.30;;
30515;SDS011;17297;54.022;10.760;2023-02-01T08:35:27;5.82;;;2.30;;
30515;SDS011;17297;54.022;10.760;2023-02-01T08:37:52;7.75;;;2.13;;
30515;SDS011;17297;54.022;10.760;2023-02-01T08:40:18;9.57;;;2.80;;
30515;SDS011;17297;54.022;10.760;2023-02-01T08:42:44;5.63;;;1.80;;
30515;SDS011;17297;54.022;10.760;2023-02-01T08:45:15;7.63;;;1.85;;
30515;SDS011;17297;54.022;10.760;2023-02-01T08:47:41;3.03;;;1.05;;
30515;SDS011;17297;54.022;10.760;2023-02-01T08:50:07;4.53;;;1.30;;
30515;SDS011;17297;54.022;10.760;2023-02-01T08:52:33;5.80;;;1.38;;
30515;SDS011;17297;54.022;10.760;2023-02-01T08:54:59;3.78;;;1.55;;
30515;SDS011;17297;54.022;10.760;2023-02-01T08:57:24;5.18;;;2.30;;
30515;SDS011;17297;54.022;10.760;2023-02-01T08:59:50;8.15;;;2.45;;
30515;SDS011;17297;54.022;10.760;2023-02-01T09:02:16;5.63;;;1.50;;
30515;SDS011;17297;54.022;10.760;2023-02-01T09:04:42;8.02;;;2.88;;
30515;SDS011;17297;54.022;10.760;2023-02-01T09:07:08;7.88;;;1.90;;
30515;SDS011;17297;54.022;10.760;2023-02-01T09:09:34;4.88;;;1.85;;
30515;SDS011;17297;54.022;10.760;2023-02-01T09:12:00;5.57;;;3.60;;
30515;SDS011;17297;54.022;10.760;2023-02-01T09:14:26;10.15;;;2.10;;
30515;SDS011;17297;54.022;10.760;2023-02-01T09:16:51;6.43;;;2.22;;
30515;SDS011;17297;54.022;10.760;2023-02-01T09:19:16;3.80;;;1.80;;
30515;SDS011;17297;54.022;10.760;2023-02-01T09:21:42;7.35;;;1.70;;
30515;SDS011;17297;54.022;10.760;2023-02-01T09:24:09;5.85;;;1.98;;
30515;SDS011;17297;54.022;10.760;2023-02-01T09:26:35;6.78;;;2.78;;
30515;SDS011;17297;54.022;10.760;2023-02-01T09:29:01;5.45;;;1.90;;
30515;SDS011;17297;54.022;10.760;2023-02-01T09:31:28;7.97;;;2.00;;
30515;SDS011;17297;54.022;10.760;2023-02-01T09:33:54;5.32;;;2.42;;
30515;SDS011;17297;54.022;10.760;2023-02-01T09:36:19;7.47;;;1.98;;
30515;SDS011;17297;54.022;10.760;2023-02-01T09:38:45;6.57;;;1.70;;
30515;SDS011;17297;54.022;10.760;2023-02-01T09:41:26;5.93;;;1.98;;
30515;SDS011;17297;54.022;10.760;2023-02-01T09:44:07;4.05;;;2.03;;
30515;SDS011;17297;54.022;10.760;2023-02-01T09:46:40;7.07;;;2.03;;
30515;SDS011;17297;54.022;10.760;2023-02-01T09:49:08;6.07;;;1.80;;
30515;SDS011;17297;54.022;10.760;2023-02-01T09:51:41;8.00;;;1.92;;
30515;SDS011;17297;54.022;10.760;2023-02-01T09:56:47;7.07;;;2.28;;
30515;SDS011;17297;54.022;10.760;2023-02-01T09:59:29;7.90;;;1.87;;
30515;SDS011;17297;54.022;10.760;2023-02-01T10:01:56;5.22;;;2.08;;
30515;SDS011;17297;54.022;10.760;2023-02-01T10:04:24;8.30;;;2.30;;
30515;SDS011;17297;54.022;10.760;2023-02-01T10:06:53;4.60;;;1.80;;
30515;SDS011;17297;54.022;10.760;2023-02-01T10:09:26;4.82;;;1.65;;
30515;SDS011;17297;54.022;10.760;2023-02-01T10:12:16;4.65;;;1.88;;
30515;SDS011;17297;54.022;10.760;2023-02-01T10:14:53;6.30;;;1.90;;
30515;SDS011;17297;54.022;10.760;2023-02-01T10:20:49;7.05;;;2.50;;
30515;SDS011;17297;54.022;10.760;2023-02-01T10:26:35;7.55;;;2.22;;
30515;SDS011;17297;54.022;10.760;2023-02-01T10:28:49;5.50;;;1.73;;
30515;SDS011;17297;54.022;10.760;2023-02-01T10:33:51;5.93;;;1.77;;
30515;SDS011;17297;54.022;10.760;2023-02-01T10:39:14;7.57;;;2.30;;
30515;SDS011;17297;54.022;10.760;2023-02-01T10:41:40;5.70;;;1.75;;
30515;SDS011;17297;54.022;10.760;2023-02-01T10:44:10;8.27;;;1.90;;
30515;SDS011;17297;54.022;10.760;2023-02-01T10:46:39;10.75;;;2.13;;
30515;SDS011;17297;54.022;10.760;2023-02-01T10:49:05;6.13;;;2.38;;
30515;SDS011;17297;54.022;10.760;2023-02-01T10:54:19;7.63;;;2.33;;
30515;SDS011;17297;54.022;10.760;2023-02-01T10:56:47;8.77;;;2.40;;
30515;SDS011;17297;54.022;10.760;2023-02-01T10:59:20;7.03;;;2.10;;
30515;SDS011;17297;54.022;10.760;2023-02-01T11:01:51;9.05;;;2.55;;
30515;SDS011;17297;54.022;10.760;2023-02-01T11:04:24;6.93;;;2.10;;
30515;SDS011;17297;54.022;10.760;2023-02-01T11:07:07;9.35;;;2.72;;
30515;SDS011;17297;54.022;10.760;2023-02-01T11:09:40;12.73;;;3.92;;
30515;SDS011;17297;54.022;10.760;2023-02-01T11:12:10;11.82;;;3.50;;
30515;SDS011;17297;54.022;10.760;2023-02-01T11:14:49;9.13;;;2.70;;
30515;SDS011;17297;54.022;10.760;2023-02-01T11:19:46;7.65;;;2.20;;
30515;SDS011;17297;54.022;10.760;2023-02-01T11:22:12;6.45;;;2.72;;
30515;SDS011;17297;54.022;10.760;2023-02-01T11:24:39;11.27;;;2.13;;
30515;SDS011;17297;54.022;10.760;2023-02-01T11:27:16;6.75;;;1.83;;
30515;SDS011;17297;54.022;10.760;2023-02-01T11:29:44;4.85;;;1.92;;
30515;SDS011;17297;54.022;10.760;2023-02-01T11:32:15;7.03;;;2.88;;
30515;SDS011;17297;54.022;10.760;2023-02-01T11:34:46;8.20;;;1.80;;
30515;SDS011;17297;54.022;10.760;2023-02-01T11:37:18;6.70;;;1.50;;
30515;SDS011;17297;54.022;10.760;2023-02-01T11:39:53;3.20;;;1.20;;
30515;SDS011;17297;54.022;10.760;2023-02-01T11:42:20;2.78;;;1.23;;
30515;SDS011;17297;54.022;10.760;2023-02-01T11:44:47;3.72;;;1.52;;
30515;SDS011;17297;54.022;10.760;2023-02-01T11:47:29;4.15;;;1.35;;
30515;SDS011;17297;54.022;10.760;2023-02-01T11:50:09;5.63;;;1.70;;
30515;SDS011;17297;54.022;10.760;2023-02-01T11:53:02;6.22;;;2.20;;
30515;SDS011;17297;54.022;10.760;2023-02-01T11:55:45;4.18;;;1.73;;
30515;SDS011;17297;54.022;10.760;2023-02-01T12:04:21;4.35;;;1.63;;
30515;SDS011;17297;54.022;10.760;2023-02-01T12:06:56;5.85;;;1.80;;
30515;SDS011;17297;54.022;10.760;2023-02-01T12:12:46;8.88;;;2.72;;
30515;SDS011;17297;54.022;10.760;2023-02-01T12:15:27;6.15;;;2.80;;
30515;SDS011;17297;54.022;10.760;2023-02-01T12:29:31;6.38;;;1.52;;
30515;SDS011;17297;54.022;10.760;2023-02-01T12:32:11;6.50;;;1.83;;
30515;SDS011;17297;54.022;10.760;2023-02-01T12:37:18;3.85;;;2.08;;
30515;SDS011;17297;54.022;10.760;2023-02-01T12:42:32;10.98;;;2.58;;
30515;SDS011;17297;54.022;10.760;2023-02-01T12:50:56;8.18;;;1.80;;
30515;SDS011;17297;54.022;10.760;2023-02-01T12:56:41;6.35;;;1.80;;
30515;SDS011;17297;54.022;10.760;2023-02-01T12:59:14;6.05;;;1.65;;
30515;SDS011;17297;54.022;10.760;2023-02-01T13:02:33;3.78;;;1.17;;
30515;SDS011;17297;54.022;10.760;2023-02-01T13:04:55;4.20;;;1.50;;
30515;SDS011;17297;54.022;10.760;2023-02-01T13:07:34;1.52;;;0.70;;
30515;SDS011;17297;54.022;10.760;2023-02-01T13:10:12;2.60;;;0.82;;
30515;SDS011;17297;54.022;10.760;2023-02-01T13:12:44;1.67;;;0.88;;
30515;SDS011;17297;54.022;10.760;2023-02-01T13:15:23;3.28;;;0.77;;
30515;SDS011;17297;54.022;10.760;2023-02-01T13:17:52;1.73;;;0.80;;
30515;SDS011;17297;54.022;10.760;2023-02-01T13:23:05;4.75;;;0.95;;
30515;SDS011;17297;54.022;10.760;2023-02-01T13:25:39;3.72;;;1.00;;
30515;SDS011;17297;54.022;10.760;2023-02-01T13:28:13;3.80;;;1.17;;
30515;SDS011;17297;54.022;10.760;2023-02-01T13:30:55;5.28;;;1.33;;
30515;SDS011;17297;54.022;10.760;2023-02-01T13:39:04;3.30;;;1.35;;
30515;SDS011;17297;54.022;10.760;2023-02-01T13:41:57;5.68;;;1.60;;
30515;SDS011;17297;54.022;10.760;2023-02-01T13:44:27;4.75;;;1.65;;
30515;SDS011;17297;54.022;10.760;2023-02-01T13:46:57;3.67;;;1.30;;
30515;SDS011;17297;54.022;10.760;2023-02-01T13:49:26;2.40;;;1.00;;
30515;SDS011;17297;54.022;10.760;2023-02-01T13:51:56;3.75;;;1.10;;
30515;SDS011;17297;54.022;10.760;2023-02-01T13:54:30;1.42;;;1.10;;
30515;SDS011;17297;54.022;10.760;2023-02-01T13:57:04;3.35;;;0.98;;
30515;SDS011;17297;54.022;10.760;2023-02-01T14:05:01;2.78;;;1.10;;
30515;SDS011;17297;54.022;10.760;2023-02-01T14:07:27;3.35;;;0.90;;
30515;SDS011;17297;54.022;10.760;2023-02-01T14:09:53;2.42;;;1.02;;
30515;SDS011;17297;54.022;10.760;2023-02-01T14:15:21;3.22;;;1.00;;
30515;SDS011;17297;54.022;10.760;2023-02-01T14:17:49;3.97;;;1.45;;
30515;SDS011;17297;54.022;10.760;2023-02-01T14:23:11;3.00;;;1.10;;
30515;SDS011;17297;54.022;10.760;2023-02-01T14:25:39;3.47;;;1.27;;
30515;SDS011;17297;54.022;10.760;2023-02-01T14:28:12;4.10;;;1.17;;
30515;SDS011;17297;54.022;10.760;2023-02-01T14:30:49;2.92;;;1.17;;
30515;SDS011;17297;54.022;10.760;2023-02-01T14:33:20;2.10;;;1.10;;
30515;SDS011;17297;54.022;10.760;2023-02-01T14:36:01;2.58;;;1.52;;
30515;SDS011;17297;54.022;10.760;2023-02-01T14:38:32;3.95;;;1.15;;
30515;SDS011;17297;54.022;10.760;2023-02-01T14:41:13;2.47;;;0.98;;
30515;SDS011;17297;54.022;10.760;2023-02-01T14:43:51;2.58;;;1.20;;
30515;SDS011;17297;54.022;10.760;2023-02-01T15:09:16;3.20;;;1.40;;
30515;SDS011;17297;54.022;10.760;2023-02-01T15:14:41;3.15;;;1.38;;
30515;SDS011;17297;54.022;10.760;2023-02-01T15:17:22;3.97;;;1.48;;
30515;SDS011;17297;54.022;10.760;2023-02-01T15:19:56;3.15;;;1.92;;
30515;SDS011;17297;54.022;10.760;2023-02-01T15:22:23;5.88;;;1.48;;
30515;SDS011;17297;54.022;10.760;2023-02-01T15:24:53;3.90;;;1.75;;
30515;SDS011;17297;54.022;10.760;2023-02-01T15:27:19;3.25;;;1.35;;
30515;SDS011;17297;54.022;10.760;2023-02-01T15:29:45;3.28;;;1.10;;
30515;SDS011;17297;54.022;10.760;2023-02-01T15:32:30;3.58;;;1.30;;
30515;SDS011;17297;54.022;10.760;2023-02-01T15:34:57;4.20;;;1.67;;
30515;SDS011;17297;54.022;10.760;2023-02-01T15:37:23;6.78;;;1.58;;
30515;SDS011;17297;54.022;10.760;2023-02-01T15:40:05;2.88;;;1.73;;
30515;SDS011;17297;54.022;10.760;2023-02-01T15:42:57;5.95;;;2.45;;
30515;SDS011;17297;54.022;10.760;2023-02-01T15:45:29;9.52;;;2.20;;
30515;SDS011;17297;54.022;10.760;2023-02-01T15:47:57;5.65;;;1.48;;
30515;SDS011;17297;54.022;10.760;2023-02-01T15:50:24;6.18;;;2.38;;
30515;SDS011;17297;54.022;10.760;2023-02-01T15:52:52;4.30;;;1.98;;
30515;SDS011;17297;54.022;10.760;2023-02-01T15:55:32;5.63;;;1.60;;
30515;SDS011;17297;54.022;10.760;2023-02-01T15:58:09;5.43;;;1.92;;
30515;SDS011;17297;54.022;10.760;2023-02-01T16:00:50;8.60;;;2.75;;
30515;SDS011;17297;54.022;10.760;2023-02-01T16:03:37;5.28;;;1.65;;
30515;SDS011;17297;54.022;10.760;2023-02-01T16:06:09;11.27;;;3.00;;
30515;SDS011;17297;54.022;10.760;2023-02-01T16:08:36;6.43;;;2.05;;
30515;SDS011;17297;54.022;10.760;2023-02-01T16:13:34;9.73;;;2.50;;
30515;SDS011;17297;54.022;10.760;2023-02-01T16:15:59;9.57;;;2.20;;
30515;SDS011;17297;54.022;10.760;2023-02-01T16:18:25;7.00;;;2.08;;
30515;SDS011;17297;54.022;10.760;2023-02-01T16:20:50;7.38;;;2.40;;
30515;SDS011;17297;54.022;10.760;2023-02-01T16:23:15;10.98;;;2.38;;
30515;SDS011;17297;54.022;10.760;2023-02-01T16:25:41;8.45;;;2.20;;
30515;SDS011;17297;54.022;10.760;2023-02-01T16:28:06;9.68;;;2.80;;
30515;SDS011;17297;54.022;10.760;2023-02-01T16:30:33;8.60;;;2.17;;
30515;SDS011;17297;54.022;10.760;2023-02-01T16:33:00;6.20;;;2.20;;
30515;SDS011;17297;54.022;10.760;2023-02-01T16:35:34;9.88;;;3.28;;
30515;SDS011;17297;54.022;10.760;2023-02-01T16:38:04;8.30;;;2.88;;
30515;SDS011;17297;54.022;10.760;2023-02-01T16:40:37;6.93;;;2.00;;
30515;SDS011;17297;54.022;10.760;2023-02-01T16:43:17;6.85;;;2.60;;
30515;SDS011;17297;54.022;10.760;2023-02-01T16:45:44;11.73;;;2.70;;
30515;SDS011;17297;54.022;10.760;2023-02-01T16:48:23;7.70;;;1.80;;
30515;SDS011;17297;54.022;10.760;2023-02-01T16:50:53;7.10;;;2.13;;
30515;SDS011;17297;54.022;10.760;2023-02-01T16:53:25;8.77;;;2.67;;
30515;SDS011;17297;54.022;10.760;2023-02-01T16:55:52;13.23;;;3.28;;
30515;SDS011;17297;54.022;10.760;2023-02-01T16:58:19;12.75;;;3.38;;
30515;SDS011;17297;54.022;10.760;2023-02-01T17:00:45;14.95;;;3.38;;
30515;SDS011;17297;54.022;10.760;2023-02-01T17:03:11;7.20;;;2.50;;
30515;SDS011;17297;54.022;10.760;2023-02-01T17:05:44;6.85;;;2.70;;
30515;SDS011;17297;54.022;10.760;2023-02-01T17:08:18;11.95;;;2.72;;
30515;SDS011;17297;54.022;10.760;2023-02-01T17:10:49;9.38;;;3.03;;
30515;SDS011;17297;54.022;10.760;2023-02-01T17:13:15;13.15;;;2.83;;
30515;SDS011;17297;54.022;10.760;2023-02-01T17:15:44;11.10;;;2.55;;
30515;SDS011;17297;54.022;10.760;2023-02-01T17:18:15;8.90;;;2.75;;